sensor_id;sensor_type;location;lat;lon;timestamp;P1;durP1;ratioP1;P2;durP2;ratioP2
75191;SDS011;63771;52.580;9.734;2022-10-22T00:00:53;6.30;;;5.70;;
75191;SDS011;63771;52.580;9.734;2022-10-22T00:03:19;5.80;;;5.22;;
75191;SDS011;63771;52.580;9.734;2022-10-22T00:05:46;6.45;;;5.82;;
75191;SDS011;63771;52.580;9.734;2022-10-22T00:08:11;6.00;;;5.45;;
75191;SDS011;63771;52.580;9.734;2022-10-22T00:10:38;6.18;;;5.57;;
75191;SDS011;63771;52.580;9.734;2022-10-22T00:13:03;6.82;;;5.32;;
75191;SDS011;63771;52.580;9.734;2022-10-22T00:15:29;10.63;;;6.15;;
75191;SDS011;63771;52.580;9.734;2022-10-22T00:17:54;18.37;;;5.60;;
75191;SDS011;63771;52.580;9.734;2022-10-22T00:20:19;8.60;;;5.73;;
75191;SDS011;63771;52.580;9.734;2022-10-22T00:22:45;6.25;;;5.47;;
75191;SDS011;63771;52.580;9.734;2022-10-22T00:25:10;8.47;;;5.23;;
75191;SDS011;63771;52.580;9.734;2022-10-22T00:27:36;6.30;;;5.27;;
75191;SDS011;63771;52.580;9.734;2022-10-22T00:30:01;6.47;;;5.87;;
75191;SDS011;63771;52.580;9.734;2022-10-22T00:32:26;8.00;;;5.28;;
75191;SDS011;63771;52.580;9.734;2022-10-22T00:34:52;6.17;;;5.53;;
75191;SDS011;63771;52.580;9.734;2022-10-22T00:37:17;6.77;;;5.80;;
75191;SDS011;63771;52.580;9.734;2022-10-22T00:39:42;6.20;;;5.60;;
75191;SDS011;63771;52.580;9.734;2022-10-22T00:42:10;5.93;;;5.40;;
75191;SDS011;63771;52.580;9.734;2022-10-22T00:47:32;6.13;;;5.53;;
75191;SDS011;63771;52.580;9.734;2022-10-22T00:50:02;6.03;;;5.53;;
75191;SDS011;63771;52.580;9.734;2022-10-22T00:52:30;7.43;;;5.80;;
75191;SDS011;63771;52.580;9.734;2022-10-22T00:54:56;6.50;;;5.63;;
75191;SDS011;63771;52.580;9.734;2022-10-22T00:57:22;6.18;;;5.47;;
75191;SDS011;63771;52.580;9.734;2022-10-22T00:59:50;6.35;;;5.75;;
75191;SDS011;63771;52.580;9.734;2022-10-22T01:02:15;7.33;;;6.63;;
75191;SDS011;63771;52.580;9.734;2022-10-22T01:04:41;8.90;;;6.38;;
75191;SDS011;63771;52.580;9.734;2022-10-22T01:07:09;10.95;;;7.00;;
75191;SDS011;63771;52.580;9.734;2022-10-22T01:12:14;6.22;;;5.63;;
75191;SDS011;63771;52.580;9.734;2022-10-22T01:14:51;8.73;;;5.80;;
75191;SDS011;63771;52.580;9.734;2022-10-22T01:17:39;6.35;;;5.82;;
75191;SDS011;63771;52.580;9.734;2022-10-22T01:26:01;6.60;;;6.03;;
75191;SDS011;63771;52.580;9.734;2022-10-22T01:28:43;7.47;;;6.30;;
75191;SDS011;63771;52.580;9.734;2022-10-22T01:31:26;5.50;;;5.00;;
75191;SDS011;63771;52.580;9.734;2022-10-22T01:33:56;6.93;;;6.22;;
75191;SDS011;63771;52.580;9.734;2022-10-22T01:36:24;6.65;;;5.97;;
75191;SDS011;63771;52.580;9.734;2022-10-22T01:38:50;7.38;;;6.63;;
75191;SDS011;63771;52.580;9.734;2022-10-22T01:41:16;6.57;;;5.50;;
75191;SDS011;63771;52.580;9.734;2022-10-22T01:43:42;7.15;;;5.32;;
75191;SDS011;63771;52.580;9.734;2022-10-22T01:46:08;6.10;;;5.60;;
75191;SDS011;63771;52.580;9.734;2022-10-22T01:54:14;6.53;;;5.45;;
75191;SDS011;63771;52.580;9.734;2022-10-22T01:59:54;5.43;;;4.95;;
75191;SDS011;63771;52.580;9.734;2022-10-22T02:05:02;6.70;;;5.88;;
75191;SDS011;63771;52.580;9.734;2022-10-22T02:07:33;6.93;;;6.20;;
75191;SDS011;63771;52.580;9.734;2022-10-22T02:10:03;5.95;;;5.32;;
75191;SDS011;63771;52.580;9.734;2022-10-22T02:14:57;5.57;;;5.13;;
75191;SDS011;63771;52.580;9.734;2022-10-22T02:17:26;5.50;;;5.03;;
75191;SDS011;63771;52.580;9.734;2022-10-22T02:19:56;7.43;;;6.20;;
75191;SDS011;63771;52.580;9.734;2022-10-22T02:22:27;9.23;;;5.15;;
75191;SDS011;63771;52.580;9.734;2022-10-22T02:24:53;6.15;;;5.13;;
75191;SDS011;63771;52.580;9.734;2022-10-22T02:27:34;5.80;;;5.20;;
75191;SDS011;63771;52.580;9.734;2022-10-22T02:30:07;6.03;;;5.05;;
75191;SDS011;63771;52.580;9.734;2022-10-22T02:32:42;5.95;;;5.22;;
75191;SDS011;63771;52.580;9.734;2022-10-22T02:35:15;5.10;;;4.68;;
75191;SDS011;63771;52.580;9.734;2022-10-22T02:37:44;6.10;;;5.60;;
75191;SDS011;63771;52.580;9.734;2022-10-22T02:40:10;4.90;;;4.50;;
75191;SDS011;63771;52.580;9.734;2022-10-22T02:42:36;5.47;;;4.97;;
75191;SDS011;63771;52.580;9.734;2022-10-22T02:45:04;5.28;;;4.78;;
75191;SDS011;63771;52.580;9.734;2022-10-22T02:47:30;6.03;;;5.47;;
75191;SDS011;63771;52.580;9.734;2022-10-22T02:49:55;6.83;;;4.63;;
75191;SDS011;63771;52.580;9.734;2022-10-22T02:52:20;7.73;;;5.17;;
75191;SDS011;63771;52.580;9.734;2022-10-22T02:54:46;6.20;;;5.60;;
75191;SDS011;63771;52.580;9.734;2022-10-22T02:57:11;5.97;;;5.37;;
75191;SDS011;63771;52.580;9.734;2022-10-22T02:59:36;5.30;;;4.80;;
75191;SDS011;63771;52.580;9.734;2022-10-22T03:02:02;5.83;;;5.33;;
75191;SDS011;63771;52.580;9.734;2022-10-22T03:04:27;4.70;;;4.32;;
75191;SDS011;63771;52.580;9.734;2022-10-22T03:06:53;5.30;;;4.82;;
75191;SDS011;63771;52.580;9.734;2022-10-22T03:09:18;7.28;;;6.63;;
75191;SDS011;63771;52.580;9.734;2022-10-22T03:11:43;6.83;;;6.20;;
75191;SDS011;63771;52.580;9.734;2022-10-22T03:14:09;5.25;;;4.72;;
75191;SDS011;63771;52.580;9.734;2022-10-22T03:16:34;5.75;;;4.85;;
75191;SDS011;63771;52.580;9.734;2022-10-22T03:19:00;6.17;;;5.53;;
75191;SDS011;63771;52.580;9.734;2022-10-22T03:21:31;5.05;;;4.60;;
75191;SDS011;63771;52.580;9.734;2022-10-22T03:24:00;6.72;;;5.45;;
75191;SDS011;63771;52.580;9.734;2022-10-22T03:26:29;6.35;;;5.70;;
75191;SDS011;63771;52.580;9.734;2022-10-22T03:28:56;11.05;;;5.22;;
75191;SDS011;63771;52.580;9.734;2022-10-22T03:31:21;5.30;;;4.80;;
75191;SDS011;63771;52.580;9.734;2022-10-22T03:33:47;5.43;;;4.93;;
75191;SDS011;63771;52.580;9.734;2022-10-22T03:36:12;5.47;;;4.60;;
75191;SDS011;63771;52.580;9.734;2022-10-22T03:38:37;5.23;;;4.73;;
75191;SDS011;63771;52.580;9.734;2022-10-22T03:41:04;6.40;;;5.00;;
75191;SDS011;63771;52.580;9.734;2022-10-22T03:43:30;6.50;;;5.07;;
75191;SDS011;63771;52.580;9.734;2022-10-22T03:45:55;6.95;;;6.45;;
75191;SDS011;63771;52.580;9.734;2022-10-22T03:48:20;5.17;;;4.67;;
75191;SDS011;63771;52.580;9.734;2022-10-22T03:50:46;7.37;;;4.33;;
75191;SDS011;63771;52.580;9.734;2022-10-22T03:53:11;5.47;;;4.97;;
75191;SDS011;63771;52.580;9.734;2022-10-22T03:55:36;5.80;;;5.40;;
75191;SDS011;63771;52.580;9.734;2022-10-22T03:58:04;5.20;;;4.80;;
75191;SDS011;63771;52.580;9.734;2022-10-22T04:00:30;8.57;;;5.85;;
75191;SDS011;63771;52.580;9.734;2022-10-22T04:02:55;5.55;;;4.35;;
75191;SDS011;63771;52.580;9.734;2022-10-22T04:05:21;5.07;;;4.72;;
75191;SDS011;63771;52.580;9.734;2022-10-22T04:07:47;5.47;;;4.97;;
75191;SDS011;63771;52.580;9.734;2022-10-22T04:10:12;6.87;;;4.23;;
75191;SDS011;63771;52.580;9.734;2022-10-22T04:12:37;10.70;;;4.77;;
75191;SDS011;63771;52.580;9.734;2022-10-22T04:15:03;6.23;;;4.97;;
75191;SDS011;63771;52.580;9.734;2022-10-22T04:17:33;5.75;;;5.25;;
75191;SDS011;63771;52.580;9.734;2022-10-22T04:19:59;6.88;;;5.07;;
75191;SDS011;63771;52.580;9.734;2022-10-22T04:22:25;5.85;;;5.25;;
75191;SDS011;63771;52.580;9.734;2022-10-22T04:24:50;4.33;;;3.93;;
75191;SDS011;63771;52.580;9.734;2022-10-22T04:27:16;4.87;;;4.47;;
75191;SDS011;63771;52.580;9.734;2022-10-22T04:29:41;5.30;;;4.83;;
75191;SDS011;63771;52.580;9.734;2022-10-22T04:32:06;4.80;;;4.40;;
75191;SDS011;63771;52.580;9.734;2022-10-22T04:34:32;6.10;;;4.83;;
75191;SDS011;63771;52.580;9.734;2022-10-22T04:36:57;5.33;;;4.80;;
75191;SDS011;63771;52.580;9.734;2022-10-22T04:39:22;5.10;;;4.70;;
75191;SDS011;63771;52.580;9.734;2022-10-22T04:41:48;5.72;;;4.75;;
75191;SDS011;63771;52.580;9.734;2022-10-22T04:44:13;4.82;;;4.53;;
75191;SDS011;63771;52.580;9.734;2022-10-22T04:46:38;6.53;;;5.50;;
75191;SDS011;63771;52.580;9.734;2022-10-22T04:49:04;5.27;;;4.60;;
75191;SDS011;63771;52.580;9.734;2022-10-22T04:51:29;6.60;;;4.57;;
75191;SDS011;63771;52.580;9.734;2022-10-22T04:53:55;4.95;;;4.15;;
75191;SDS011;63771;52.580;9.734;2022-10-22T04:56:21;6.43;;;5.13;;
75191;SDS011;63771;52.580;9.734;2022-10-22T04:58:49;5.63;;;4.00;;
75191;SDS011;63771;52.580;9.734;2022-10-22T05:01:20;4.03;;;3.72;;
75191;SDS011;63771;52.580;9.734;2022-10-22T05:03:49;5.68;;;4.00;;
75191;SDS011;63771;52.580;9.734;2022-10-22T05:08:42;4.97;;;4.57;;
75191;SDS011;63771;52.580;9.734;2022-10-22T05:11:16;6.15;;;5.20;;
75191;SDS011;63771;52.580;9.734;2022-10-22T05:16:08;5.50;;;4.10;;
75191;SDS011;63771;52.580;9.734;2022-10-22T05:18:37;6.55;;;5.03;;
75191;SDS011;63771;52.580;9.734;2022-10-22T05:21:06;5.65;;;5.15;;
75191;SDS011;63771;52.580;9.734;2022-10-22T05:23:33;5.78;;;5.28;;
75191;SDS011;63771;52.580;9.734;2022-10-22T05:26:02;6.53;;;4.87;;
75191;SDS011;63771;52.580;9.734;2022-10-22T05:28:28;7.10;;;5.07;;
75191;SDS011;63771;52.580;9.734;2022-10-22T05:30:57;5.50;;;5.00;;
75191;SDS011;63771;52.580;9.734;2022-10-22T05:33:24;6.00;;;5.47;;
75191;SDS011;63771;52.580;9.734;2022-10-22T05:35:50;8.05;;;6.03;;
75191;SDS011;63771;52.580;9.734;2022-10-22T05:38:16;4.53;;;4.22;;
75191;SDS011;63771;52.580;9.734;2022-10-22T05:40:43;5.32;;;4.88;;
75191;SDS011;63771;52.580;9.734;2022-10-22T05:43:09;6.15;;;5.10;;
75191;SDS011;63771;52.580;9.734;2022-10-22T05:45:38;4.72;;;4.32;;
75191;SDS011;63771;52.580;9.734;2022-10-22T05:48:05;5.95;;;5.03;;
75191;SDS011;63771;52.580;9.734;2022-10-22T05:50:34;5.15;;;4.75;;
75191;SDS011;63771;52.580;9.734;2022-10-22T05:53:01;5.28;;;4.78;;
75191;SDS011;63771;52.580;9.734;2022-10-22T05:55:27;5.18;;;4.68;;
75191;SDS011;63771;52.580;9.734;2022-10-22T05:57:52;10.05;;;4.63;;
75191;SDS011;63771;52.580;9.734;2022-10-22T06:00:18;5.27;;;4.77;;
75191;SDS011;63771;52.580;9.734;2022-10-22T06:02:43;6.30;;;5.70;;
75191;SDS011;63771;52.580;9.734;2022-10-22T06:05:08;5.83;;;5.23;;
75191;SDS011;63771;52.580;9.734;2022-10-22T06:07:34;6.00;;;5.50;;
75191;SDS011;63771;52.580;9.734;2022-10-22T06:10:00;10.27;;;5.18;;
75191;SDS011;63771;52.580;9.734;2022-10-22T06:12:26;6.18;;;5.55;;
75191;SDS011;63771;52.580;9.734;2022-10-22T06:14:51;6.30;;;4.97;;
75191;SDS011;63771;52.580;9.734;2022-10-22T06:17:17;7.50;;;5.03;;
75191;SDS011;63771;52.580;9.734;2022-10-22T06:19:43;4.72;;;4.28;;
75191;SDS011;63771;52.580;9.734;2022-10-22T06:22:09;5.82;;;5.22;;
75191;SDS011;63771;52.580;9.734;2022-10-22T06:24:34;4.63;;;4.22;;
75191;SDS011;63771;52.580;9.734;2022-10-22T06:27:00;4.57;;;4.17;;
75191;SDS011;63771;52.580;9.734;2022-10-22T06:29:25;5.00;;;4.50;;
75191;SDS011;63771;52.580;9.734;2022-10-22T06:31:50;4.72;;;4.32;;
75191;SDS011;63771;52.580;9.734;2022-10-22T06:34:16;4.30;;;3.90;;
75191;SDS011;63771;52.580;9.734;2022-10-22T06:36:44;4.72;;;4.22;;
75191;SDS011;63771;52.580;9.734;2022-10-22T06:39:11;4.90;;;3.92;;
75191;SDS011;63771;52.580;9.734;2022-10-22T06:41:38;4.88;;;4.45;;
75191;SDS011;63771;52.580;9.734;2022-10-22T06:44:04;3.75;;;3.45;;
75191;SDS011;63771;52.580;9.734;2022-10-22T06:46:29;4.60;;;4.30;;
75191;SDS011;63771;52.580;9.734;2022-10-22T06:48:59;4.53;;;4.13;;
75191;SDS011;63771;52.580;9.734;2022-10-22T06:51:27;5.00;;;4.60;;
75191;SDS011;63771;52.580;9.734;2022-10-22T06:53:54;5.22;;;4.80;;
75191;SDS011;63771;52.580;9.734;2022-10-22T06:56:20;5.55;;;4.82;;
75191;SDS011;63771;52.580;9.734;2022-10-22T06:58:48;5.93;;;5.03;;
75191;SDS011;63771;52.580;9.734;2022-10-22T07:01:18;4.32;;;4.03;;
75191;SDS011;63771;52.580;9.734;2022-10-22T07:03:46;5.00;;;4.60;;
75191;SDS011;63771;52.580;9.734;2022-10-22T07:06:13;5.85;;;4.90;;
75191;SDS011;63771;52.580;9.734;2022-10-22T07:08:39;4.88;;;4.47;;
75191;SDS011;63771;52.580;9.734;2022-10-22T07:13:32;5.72;;;5.13;;
75191;SDS011;63771;52.580;9.734;2022-10-22T07:15:58;5.88;;;5.28;;
75191;SDS011;63771;52.580;9.734;2022-10-22T07:18:23;6.10;;;4.93;;
75191;SDS011;63771;52.580;9.734;2022-10-22T07:20:48;5.80;;;5.23;;
75191;SDS011;63771;52.580;9.734;2022-10-22T07:23:14;4.90;;;4.50;;
75191;SDS011;63771;52.580;9.734;2022-10-22T07:25:40;6.75;;;6.15;;
75191;SDS011;63771;52.580;9.734;2022-10-22T07:28:06;10.05;;;5.60;;
75191;SDS011;63771;52.580;9.734;2022-10-22T07:30:36;5.88;;;4.82;;
75191;SDS011;63771;52.580;9.734;2022-10-22T07:33:02;5.75;;;5.25;;
75191;SDS011;63771;52.580;9.734;2022-10-22T07:35:28;6.85;;;6.15;;
75191;SDS011;63771;52.580;9.734;2022-10-22T07:37:53;9.40;;;6.27;;
75191;SDS011;63771;52.580;9.734;2022-10-22T07:40:19;10.13;;;7.35;;
75191;SDS011;63771;52.580;9.734;2022-10-22T07:42:44;11.45;;;7.57;;
75191;SDS011;63771;52.580;9.734;2022-10-22T07:45:09;10.40;;;6.87;;
75191;SDS011;63771;52.580;9.734;2022-10-22T07:47:35;10.25;;;7.45;;
75191;SDS011;63771;52.580;9.734;2022-10-22T07:50:00;10.90;;;7.75;;
75191;SDS011;63771;52.580;9.734;2022-10-22T07:52:26;12.77;;;7.77;;
75191;SDS011;63771;52.580;9.734;2022-10-22T07:54:51;12.85;;;7.18;;
75191;SDS011;63771;52.580;9.734;2022-10-22T07:57:17;11.33;;;8.50;;
75191;SDS011;63771;52.580;9.734;2022-10-22T07:59:42;8.77;;;7.53;;
75191;SDS011;63771;52.580;9.734;2022-10-22T08:02:08;12.50;;;7.60;;
75191;SDS011;63771;52.580;9.734;2022-10-22T08:04:35;17.27;;;8.88;;
75191;SDS011;63771;52.580;9.734;2022-10-22T08:07:00;22.63;;;10.23;;
75191;SDS011;63771;52.580;9.734;2022-10-22T08:09:25;30.60;;;10.50;;
75191;SDS011;63771;52.580;9.734;2022-10-22T08:11:51;16.10;;;9.23;;
75191;SDS011;63771;52.580;9.734;2022-10-22T08:14:16;19.87;;;9.40;;
75191;SDS011;63771;52.580;9.734;2022-10-22T08:16:41;20.10;;;11.30;;
75191;SDS011;63771;52.580;9.734;2022-10-22T08:19:07;19.93;;;8.57;;
75191;SDS011;63771;52.580;9.734;2022-10-22T08:21:32;22.52;;;9.40;;
75191;SDS011;63771;52.580;9.734;2022-10-22T08:23:57;17.47;;;9.63;;
75191;SDS011;63771;52.580;9.734;2022-10-22T08:26:23;15.90;;;8.80;;
75191;SDS011;63771;52.580;9.734;2022-10-22T08:28:48;9.95;;;7.45;;
75191;SDS011;63771;52.580;9.734;2022-10-22T08:31:14;9.87;;;7.70;;
75191;SDS011;63771;52.580;9.734;2022-10-22T08:33:39;13.33;;;7.30;;
75191;SDS011;63771;52.580;9.734;2022-10-22T08:36:05;7.93;;;6.80;;
75191;SDS011;63771;52.580;9.734;2022-10-22T08:38:31;5.28;;;4.75;;
75191;SDS011;63771;52.580;9.734;2022-10-22T08:40:59;8.20;;;6.43;;
75191;SDS011;63771;52.580;9.734;2022-10-22T08:49:20;5.32;;;4.93;;
75191;SDS011;63771;52.580;9.734;2022-10-22T08:51:50;5.28;;;3.97;;
75191;SDS011;63771;52.580;9.734;2022-10-22T08:56:58;5.25;;;4.75;;
75191;SDS011;63771;52.580;9.734;2022-10-22T08:59:45;6.43;;;4.85;;
75191;SDS011;63771;52.580;9.734;2022-10-22T09:08:10;7.55;;;3.80;;
75191;SDS011;63771;52.580;9.734;2022-10-22T09:10:37;5.18;;;4.00;;
75191;SDS011;63771;52.580;9.734;2022-10-22T09:13:10;9.55;;;3.92;;
75191;SDS011;63771;52.580;9.734;2022-10-22T09:15:40;4.50;;;3.30;;
75191;SDS011;63771;52.580;9.734;2022-10-22T09:18:17;3.33;;;2.87;;
75191;SDS011;63771;52.580;9.734;2022-10-22T09:21:19;4.78;;;3.20;;
75191;SDS011;63771;52.580;9.734;2022-10-22T09:24:02;6.57;;;2.92;;
75191;SDS011;63771;52.580;9.734;2022-10-22T09:26:31;3.50;;;3.20;;
75191;SDS011;63771;52.580;9.734;2022-10-22T09:29:00;8.60;;;3.50;;
75191;SDS011;63771;52.580;9.734;2022-10-22T09:31:26;5.55;;;3.08;;
75191;SDS011;63771;52.580;9.734;2022-10-22T09:33:55;3.90;;;2.83;;
75191;SDS011;63771;52.580;9.734;2022-10-22T09:36:21;2.80;;;2.60;;
75191;SDS011;63771;52.580;9.734;2022-10-22T09:38:51;8.38;;;3.13;;
75191;SDS011;63771;52.580;9.734;2022-10-22T09:41:17;3.60;;;3.05;;
75191;SDS011;63771;52.580;9.734;2022-10-22T09:43:45;3.83;;;2.90;;
75191;SDS011;63771;52.580;9.734;2022-10-22T09:46:18;3.58;;;2.80;;
75191;SDS011;63771;52.580;9.734;2022-10-22T09:51:24;3.83;;;2.85;;
75191;SDS011;63771;52.580;9.734;2022-10-22T09:54:00;2.75;;;2.58;;
75191;SDS011;63771;52.580;9.734;2022-10-22T09:56:40;6.50;;;3.33;;
75191;SDS011;63771;52.580;9.734;2022-10-22T09:59:13;3.20;;;2.95;;
75191;SDS011;63771;52.580;9.734;2022-10-22T10:01:40;2.88;;;2.28;;
75191;SDS011;63771;52.580;9.734;2022-10-22T10:04:09;4.82;;;2.67;;
75191;SDS011;63771;52.580;9.734;2022-10-22T10:06:38;4.63;;;2.70;;
75191;SDS011;63771;52.580;9.734;2022-10-22T10:09:13;4.63;;;2.60;;
75191;SDS011;63771;52.580;9.734;2022-10-22T10:17:40;7.03;;;2.95;;
75191;SDS011;63771;52.580;9.734;2022-10-22T10:22:54;3.60;;;2.90;;
75191;SDS011;63771;52.580;9.734;2022-10-22T10:25:32;4.60;;;3.00;;
75191;SDS011;63771;52.580;9.734;2022-10-22T10:28:11;3.35;;;3.00;;
75191;SDS011;63771;52.580;9.734;2022-10-22T10:30:46;4.75;;;2.95;;
75191;SDS011;63771;52.580;9.734;2022-10-22T10:47:12;3.47;;;2.85;;
75191;SDS011;63771;52.580;9.734;2022-10-22T10:49:48;4.97;;;2.67;;
75191;SDS011;63771;52.580;9.734;2022-10-22T10:52:21;3.80;;;2.58;;
75191;SDS011;63771;52.580;9.734;2022-10-22T10:55:21;3.00;;;2.58;;
75191;SDS011;63771;52.580;9.734;2022-10-22T11:00:58;3.63;;;2.55;;
75191;SDS011;63771;52.580;9.734;2022-10-22T11:06:19;6.75;;;3.08;;
75191;SDS011;63771;52.580;9.734;2022-10-22T11:11:29;4.88;;;2.70;;
75191;SDS011;63771;52.580;9.734;2022-10-22T11:16:26;6.13;;;3.20;;
75191;SDS011;63771;52.580;9.734;2022-10-22T11:18:55;3.17;;;2.80;;
75191;SDS011;63771;52.580;9.734;2022-10-22T11:29:46;3.22;;;2.60;;
75191;SDS011;63771;52.580;9.734;2022-10-22T11:32:18;3.25;;;2.90;;
75191;SDS011;63771;52.580;9.734;2022-10-22T11:34:46;4.85;;;3.08;;
75191;SDS011;63771;52.580;9.734;2022-10-22T11:37:14;4.78;;;2.83;;
75191;SDS011;63771;52.580;9.734;2022-10-22T11:42:17;5.45;;;3.40;;
75191;SDS011;63771;52.580;9.734;2022-10-22T11:44:57;6.57;;;3.05;;
75191;SDS011;63771;52.580;9.734;2022-10-22T11:47:24;3.90;;;3.33;;
75191;SDS011;63771;52.580;9.734;2022-10-22T11:49:56;6.65;;;3.58;;
75191;SDS011;63771;52.580;9.734;2022-10-22T11:52:36;5.05;;;2.88;;
75191;SDS011;63771;52.580;9.734;2022-10-22T11:57:56;2.88;;;2.53;;
75191;SDS011;63771;52.580;9.734;2022-10-22T12:03:13;5.22;;;2.80;;
75191;SDS011;63771;52.580;9.734;2022-10-22T12:05:41;7.72;;;3.25;;
75191;SDS011;63771;52.580;9.734;2022-10-22T12:10:34;4.30;;;3.10;;
75191;SDS011;63771;52.580;9.734;2022-10-22T12:13:20;3.17;;;2.75;;
75191;SDS011;63771;52.580;9.734;2022-10-22T12:15:52;7.97;;;2.97;;
75191;SDS011;63771;52.580;9.734;2022-10-22T12:18:25;5.82;;;2.42;;
75191;SDS011;63771;52.580;9.734;2022-10-22T12:21:02;4.38;;;2.72;;
75191;SDS011;63771;52.580;9.734;2022-10-22T12:23:29;7.35;;;2.60;;
75191;SDS011;63771;52.580;9.734;2022-10-22T12:25:58;5.28;;;2.10;;
75191;SDS011;63771;52.580;9.734;2022-10-22T12:28:23;4.10;;;2.13;;
75191;SDS011;63771;52.580;9.734;2022-10-22T12:30:48;3.17;;;2.30;;
75191;SDS011;63771;52.580;9.734;2022-10-22T12:33:18;3.83;;;2.70;;
75191;SDS011;63771;52.580;9.734;2022-10-22T12:35:47;6.35;;;1.95;;
75191;SDS011;63771;52.580;9.734;2022-10-22T12:38:18;9.07;;;3.30;;
75191;SDS011;63771;52.580;9.734;2022-10-22T12:40:46;2.75;;;2.33;;
75191;SDS011;63771;52.580;9.734;2022-10-22T12:43:18;5.80;;;2.30;;
75191;SDS011;63771;52.580;9.734;2022-10-22T12:45:49;6.80;;;3.05;;
75191;SDS011;63771;52.580;9.734;2022-10-22T12:48:16;6.57;;;2.60;;
75191;SDS011;63771;52.580;9.734;2022-10-22T12:50:47;10.40;;;3.75;;
75191;SDS011;63771;52.580;9.734;2022-10-22T12:55:56;5.18;;;2.05;;
75191;SDS011;63771;52.580;9.734;2022-10-22T12:58:26;4.03;;;3.22;;
75191;SDS011;63771;52.580;9.734;2022-10-22T13:00:54;6.63;;;2.80;;
75191;SDS011;63771;52.580;9.734;2022-10-22T13:03:35;2.92;;;2.28;;
75191;SDS011;63771;52.580;9.734;2022-10-22T13:06:12;5.70;;;2.17;;
75191;SDS011;63771;52.580;9.734;2022-10-22T13:08:44;3.75;;;2.38;;
75191;SDS011;63771;52.580;9.734;2022-10-22T13:11:47;4.03;;;2.85;;
75191;SDS011;63771;52.580;9.734;2022-10-22T13:14:29;4.40;;;2.28;;
75191;SDS011;63771;52.580;9.734;2022-10-22T13:17:04;5.13;;;2.78;;
75191;SDS011;63771;52.580;9.734;2022-10-22T13:22:25;6.10;;;2.45;;
75191;SDS011;63771;52.580;9.734;2022-10-22T13:24:50;3.50;;;2.13;;
75191;SDS011;63771;52.580;9.734;2022-10-22T13:27:16;3.85;;;2.97;;
75191;SDS011;63771;52.580;9.734;2022-10-22T13:29:41;7.22;;;2.33;;
75191;SDS011;63771;52.580;9.734;2022-10-22T13:32:21;2.33;;;2.00;;
75191;SDS011;63771;52.580;9.734;2022-10-22T13:34:54;2.63;;;2.10;;
75191;SDS011;63771;52.580;9.734;2022-10-22T13:37:30;5.82;;;2.63;;
75191;SDS011;63771;52.580;9.734;2022-10-22T13:39:58;5.25;;;2.38;;
75191;SDS011;63771;52.580;9.734;2022-10-22T13:42:23;4.68;;;2.83;;
75191;SDS011;63771;52.580;9.734;2022-10-22T13:44:48;5.78;;;2.65;;
75191;SDS011;63771;52.580;9.734;2022-10-22T13:47:18;6.63;;;2.42;;
75191;SDS011;63771;52.580;9.734;2022-10-22T13:49:49;7.07;;;2.60;;
75191;SDS011;63771;52.580;9.734;2022-10-22T13:52:17;3.40;;;2.10;;
75191;SDS011;63771;52.580;9.734;2022-10-22T13:54:51;6.07;;;2.92;;
75191;SDS011;63771;52.580;9.734;2022-10-22T13:57:16;3.57;;;2.27;;
75191;SDS011;63771;52.580;9.734;2022-10-22T13:59:42;4.00;;;2.43;;
75191;SDS011;63771;52.580;9.734;2022-10-22T14:02:10;4.63;;;2.42;;
75191;SDS011;63771;52.580;9.734;2022-10-22T14:04:38;4.25;;;2.40;;
75191;SDS011;63771;52.580;9.734;2022-10-22T14:07:12;2.55;;;2.33;;
75191;SDS011;63771;52.580;9.734;2022-10-22T14:09:39;7.25;;;2.53;;
75191;SDS011;63771;52.580;9.734;2022-10-22T14:12:14;3.25;;;2.58;;
75191;SDS011;63771;52.580;9.734;2022-10-22T14:14:40;3.90;;;2.25;;
75191;SDS011;63771;52.580;9.734;2022-10-22T14:17:08;2.63;;;2.00;;
75191;SDS011;63771;52.580;9.734;2022-10-22T14:22:07;3.90;;;2.42;;
75191;SDS011;63771;52.580;9.734;2022-10-22T14:24:37;6.75;;;3.25;;
75191;SDS011;63771;52.580;9.734;2022-10-22T14:27:02;9.13;;;2.50;;
75191;SDS011;63771;52.580;9.734;2022-10-22T14:29:27;7.00;;;2.53;;
75191;SDS011;63771;52.580;9.734;2022-10-22T14:31:53;3.30;;;2.40;;
75191;SDS011;63771;52.580;9.734;2022-10-22T14:34:18;5.15;;;2.33;;
75191;SDS011;63771;52.580;9.734;2022-10-22T14:36:43;4.40;;;3.00;;
75191;SDS011;63771;52.580;9.734;2022-10-22T14:39:09;2.83;;;2.43;;
75191;SDS011;63771;52.580;9.734;2022-10-22T14:41:34;3.00;;;2.70;;
75191;SDS011;63771;52.580;9.734;2022-10-22T14:44:01;4.97;;;2.45;;
75191;SDS011;63771;52.580;9.734;2022-10-22T14:46:26;3.20;;;2.70;;
75191;SDS011;63771;52.580;9.734;2022-10-22T14:48:52;2.85;;;2.20;;
75191;SDS011;63771;52.580;9.734;2022-10-22T14:51:18;5.03;;;2.40;;
75191;SDS011;63771;52.580;9.734;2022-10-22T14:53:45;2.47;;;2.20;;
75191;SDS011;63771;52.580;9.734;2022-10-22T14:56:11;3.05;;;2.38;;
75191;SDS011;63771;52.580;9.734;2022-10-22T14:58:38;5.47;;;2.20;;
75191;SDS011;63771;52.580;9.734;2022-10-22T15:01:04;5.50;;;2.85;;
75191;SDS011;63771;52.580;9.734;2022-10-22T15:03:29;6.15;;;2.45;;
75191;SDS011;63771;52.580;9.734;2022-10-22T15:05:55;5.80;;;2.78;;
75191;SDS011;63771;52.580;9.734;2022-10-22T15:08:20;3.22;;;2.30;;
75191;SDS011;63771;52.580;9.734;2022-10-22T15:10:55;4.43;;;2.40;;
75191;SDS011;63771;52.580;9.734;2022-10-22T15:13:22;2.78;;;2.25;;
75191;SDS011;63771;52.580;9.734;2022-10-22T15:15:47;3.23;;;2.10;;
75191;SDS011;63771;52.580;9.734;2022-10-22T15:18:12;5.07;;;2.57;;
75191;SDS011;63771;52.580;9.734;2022-10-22T15:20:37;4.57;;;2.93;;
75191;SDS011;63771;52.580;9.734;2022-10-22T15:23:03;7.67;;;3.07;;
75191;SDS011;63771;52.580;9.734;2022-10-22T15:25:28;3.72;;;2.60;;
75191;SDS011;63771;52.580;9.734;2022-10-22T15:27:54;4.68;;;2.63;;
75191;SDS011;63771;52.580;9.734;2022-10-22T15:30:19;3.77;;;2.93;;
75191;SDS011;63771;52.580;9.734;2022-10-22T15:32:45;3.60;;;2.67;;
75191;SDS011;63771;52.580;9.734;2022-10-22T15:35:10;5.03;;;2.67;;
75191;SDS011;63771;52.580;9.734;2022-10-22T15:37:35;3.27;;;2.37;;
75191;SDS011;63771;52.580;9.734;2022-10-22T15:40:02;4.35;;;2.53;;
75191;SDS011;63771;52.580;9.734;2022-10-22T15:42:29;2.30;;;2.10;;
75191;SDS011;63771;52.580;9.734;2022-10-22T15:44:56;4.05;;;2.30;;
75191;SDS011;63771;52.580;9.734;2022-10-22T15:47:22;4.43;;;2.30;;
75191;SDS011;63771;52.580;9.734;2022-10-22T15:49:52;7.88;;;2.13;;
75191;SDS011;63771;52.580;9.734;2022-10-22T15:52:18;7.38;;;2.85;;
75191;SDS011;63771;52.580;9.734;2022-10-22T15:54:45;4.80;;;2.08;;
75191;SDS011;63771;52.580;9.734;2022-10-22T15:57:11;4.72;;;2.10;;
75191;SDS011;63771;52.580;9.734;2022-10-22T15:59:36;5.93;;;2.23;;
75191;SDS011;63771;52.580;9.734;2022-10-22T16:02:01;2.83;;;2.63;;
75191;SDS011;63771;52.580;9.734;2022-10-22T16:04:27;2.40;;;2.20;;
75191;SDS011;63771;52.580;9.734;2022-10-22T16:06:52;4.13;;;2.50;;
75191;SDS011;63771;52.580;9.734;2022-10-22T16:09:19;4.53;;;2.47;;
75191;SDS011;63771;52.580;9.734;2022-10-22T16:11:46;2.85;;;2.65;;
75191;SDS011;63771;52.580;9.734;2022-10-22T16:14:13;2.30;;;2.00;;
75191;SDS011;63771;52.580;9.734;2022-10-22T16:16:44;4.43;;;1.75;;
75191;SDS011;63771;52.580;9.734;2022-10-22T16:19:11;3.15;;;2.10;;
75191;SDS011;63771;52.580;9.734;2022-10-22T16:21:37;5.07;;;2.22;;
75191;SDS011;63771;52.580;9.734;2022-10-22T16:24:03;6.75;;;2.10;;
75191;SDS011;63771;52.580;9.734;2022-10-22T16:26:29;5.47;;;2.33;;
75191;SDS011;63771;52.580;9.734;2022-10-22T16:28:55;2.13;;;1.88;;
75191;SDS011;63771;52.580;9.734;2022-10-22T16:31:21;3.38;;;2.08;;
75191;SDS011;63771;52.580;9.734;2022-10-22T16:33:47;2.70;;;1.70;;
75191;SDS011;63771;52.580;9.734;2022-10-22T16:36:14;3.07;;;1.80;;
75191;SDS011;63771;52.580;9.734;2022-10-22T16:38:41;5.47;;;2.10;;
75191;SDS011;63771;52.580;9.734;2022-10-22T16:41:14;5.57;;;1.90;;